Time;durP1;ratioP1;P1;durP2;ratioP2;P2;SDS_P1;SDS_P2;PMS_P1;PMS_P2;Temp;Humidity;BMP_temperature;BMP_pressure;BME280_temperature;BME280_humidity;BME280_pressure;Samples;Min_cycle;Max_cycle;Signal;HPM_P1;HPM_P2
2023/10/27 00:01:47;;;;;;;111.03;75.43;;;;;;;20.57;nan;98760.97;5010835;28;20100;-67
2023/10/27 00:04:16;;;;;;;116.13;78.05;;;;;;;20.50;nan;98757.66;5008595;28;20049;-67
2023/10/27 00:06:46;;;;;;;124.65;81.13;;;;;;;20.60;nan;98763.16;5010499;28;20052;-67
2023/10/27 00:09:16;;;;;;;125.97;81.97;;;;;;;20.45;nan;98763.00;5010743;28;20181;-68
2023/10/27 00:11:45;;;;;;;120.88;81.63;;;;;;;20.50;nan;98754.97;5010016;28;20733;-68
2023/10/27 00:14:14;;;;;;;121.07;84.28;;;;;;;20.53;nan;98754.47;5011909;28;20139;-68
2023/10/27 00:16:44;;;;;;;121.65;82.80;;;;;;;20.32;nan;98758.03;5010734;28;20046;-67
2023/10/27 00:19:13;;;;;;;123.57;83.00;;;;;;;20.35;nan;98751.34;5009495;28;20045;-68
2023/10/27 00:21:42;;;;;;;125.63;82.63;;;;;;;20.14;nan;98759.16;5007591;28;20042;-68
2023/10/27 00:24:12;;;;;;;138.15;82.03;;;;;;;20.24;nan;98763.84;5008031;28;20148;-67
2023/10/27 00:26:42;;;;;;;122.18;83.57;;;;;;;20.40;nan;98765.63;5006411;28;20059;-67
2023/10/27 00:29:11;;;;;;;124.05;81.35;;;;;;;20.24;nan;98766.53;5015747;28;20045;-68
2023/10/27 00:31:40;;;;;;;124.10;79.63;;;;;;;20.45;nan;98756.81;5013628;28;20053;-67
2023/10/27 00:34:10;;;;;;;110.95;78.18;;;;;;;20.56;nan;98764.75;5022084;28;20042;-68
2023/10/27 00:36:39;;;;;;;118.53;77.97;;;;;;;20.52;nan;98757.44;5014655;28;20049;-67
2023/10/27 00:39:09;;;;;;;116.32;76.68;;;;;;;20.50;nan;98764.94;5016992;28;20073;-67
2023/10/27 00:41:38;;;;;;;110.28;76.35;;;;;;;20.46;nan;98755.75;5013493;28;20045;-67
2023/10/27 00:44:08;;;;;;;109.65;73.80;;;;;;;20.53;nan;98757.16;5016620;28;20560;-68
2023/10/27 00:46:37;;;;;;;103.88;74.38;;;;;;;20.48;nan;98756.31;5006543;28;20061;-66
2023/10/27 00:49:07;;;;;;;106.43;73.72;;;;;;;20.37;nan;98759.97;4998878;28;20046;-68
2023/10/27 00:51:37;;;;;;;111.20;75.60;;;;;;;20.35;nan;98773.69;5004440;28;20056;-66
2023/10/27 00:54:11;;;;;;;103.60;73.53;;;;;;;20.34;nan;98779.31;5006867;28;20055;-66
2023/10/27 00:56:40;;;;;;;115.93;75.28;;;;;;;20.47;nan;98774.34;5020499;28;20544;-66
2023/10/27 00:59:10;;;;;;;102.32;73.88;;;;;;;20.59;nan;98772.28;5023905;28;20123;-67
2023/10/27 01:01:40;;;;;;;104.30;75.72;;;;;;;20.50;nan;98773.00;4999462;28;20053;-66
2023/10/27 01:04:09;;;;;;;106.72;74.30;;;;;;;20.30;nan;98778.19;4991073;28;20046;-67
2023/10/27 01:06:39;;;;;;;105.05;74.60;;;;;;;20.45;nan;98792.59;5000187;28;20038;-68
2023/10/27 01:09:09;;;;;;;105.43;73.75;;;;;;;20.36;nan;98786.03;5009156;28;20427;-68
2023/10/27 01:11:40;;;;;;;105.05;74.03;;;;;;;20.17;nan;98793.63;5000453;28;20132;-67
2023/10/27 01:14:12;;;;;;;105.65;76.40;;;;;;;20.16;nan;98793.88;4998413;28;20050;-67
2023/10/27 01:16:42;;;;;;;107.95;75.53;;;;;;;20.12;nan;98790.06;5000981;28;20045;-67
2023/10/27 01:19:12;;;;;;;106.88;77.45;;;;;;;20.15;nan;98795.75;4989880;28;20052;-68
2023/10/27 01:21:42;;;;;;;109.32;77.07;;;;;;;19.98;nan;98796.88;4998565;28;20132;-68
2023/10/27 01:24:13;;;;;;;112.65;78.50;;;;;;;20.07;nan;98795.38;5002928;28;20735;-68
2023/10/27 01:26:43;;;;;;;111.45;76.38;;;;;;;20.38;nan;98797.38;5007844;28;20056;-67
2023/10/27 01:29:13;;;;;;;119.45;78.93;;;;;;;20.47;nan;98787.78;5007983;28;20061;-66
2023/10/27 01:31:42;;;;;;;113.07;79.57;;;;;;;20.33;nan;98794.63;5008560;28;20073;-67
2023/10/27 01:34:12;;;;;;;116.85;80.63;;;;;;;19.95;nan;98797.41;5007097;28;20039;-68
2023/10/27 01:36:41;;;;;;;120.40;81.78;;;;;;;20.18;nan;98795.25;4997300;28;20061;-68
2023/10/27 01:39:12;;;;;;;112.13;78.10;;;;;;;20.06;nan;98794.56;5026153;28;20049;-68
2023/10/27 01:41:42;;;;;;;113.97;82.15;;;;;;;20.08;nan;98799.72;5006405;28;20426;-66
2023/10/27 01:44:22;;;;;;;;;;;;;;;;;;;;;
2023/10/27 01:46:54;;;;;;;109.70;77.50;;;;;;;19.98;nan;98811.16;4993547;28;20045;-67
2023/10/27 01:49:23;;;;;;;118.80;78.50;;;;;;;19.84;nan;98812.56;5012762;28;20053;-67
2023/10/27 01:51:53;;;;;;;113.18;77.97;;;;;;;20.16;nan;98807.31;5010293;28;20132;-67
2023/10/27 01:54:22;;;;;;;118.53;80.60;;;;;;;20.34;nan;98809.72;5017060;28;20066;-67
2023/10/27 01:56:51;;;;;;;120.57;79.70;;;;;;;20.26;nan;98822.78;5010737;28;20919;-67
2023/10/27 01:59:21;;;;;;;126.45;84.65;;;;;;;20.16;nan;98818.09;5009030;28;20870;-67
2023/10/27 02:01:50;;;;;;;127.47;82.10;;;;;;;20.20;nan;98821.88;5010436;28;20049;-67
2023/10/27 02:04:20;;;;;;;141.05;85.32;;;;;;;20.16;nan;98829.66;5024754;28;20072;-67
2023/10/27 02:06:49;;;;;;;134.63;87.55;;;;;;;20.22;nan;98827.84;4999543;28;20140;-67
2023/10/27 02:09:19;;;;;;;139.90;88.88;;;;;;;20.35;nan;98834.75;5005599;28;20041;-68
2023/10/27 02:11:48;;;;;;;133.93;87.85;;;;;;;20.42;nan;98833.47;5004125;28;20053;-67
2023/10/27 02:14:18;;;;;;;134.93;89.20;;;;;;;20.61;nan;98836.63;5011296;28;21245;-67
2023/10/27 02:16:53;;;;;;;133.27;87.45;;;;;;;20.80;nan;98839.78;5007611;28;20038;-68
2023/10/27 02:19:22;;;;;;;130.60;88.38;;;;;;;21.08;nan;98845.69;5019182;28;20054;-67
2023/10/27 02:21:52;;;;;;;127.75;86.82;;;;;;;21.26;nan;98843.69;4992456;28;20049;-67
2023/10/27 02:24:21;;;;;;;130.30;87.85;;;;;;;21.36;nan;98847.28;5001780;28;20064;-67
2023/10/27 02:26:53;;;;;;;133.05;89.85;;;;;;;21.47;nan;98851.66;5008487;28;20049;-67
2023/10/27 02:29:23;;;;;;;142.85;93.75;;;;;;;21.50;nan;98847.66;5005256;28;20053;-67
2023/10/27 02:31:52;;;;;;;142.07;93.68;;;;;;;21.61;nan;98849.31;4998670;28;20057;-67
2023/10/27 02:34:22;;;;;;;139.20;92.60;;;;;;;21.70;nan;98855.03;5011392;28;20641;-67
2023/10/27 02:36:51;;;;;;;139.93;93.30;;;;;;;21.74;nan;98856.13;5021360;28;20157;-67
2023/10/27 02:39:21;;;;;;;137.90;92.35;;;;;;;21.90;nan;98863.25;5021833;28;20055;-67
2023/10/27 02:41:50;;;;;;;141.35;94.28;;;;;;;22.09;nan;98869.03;5008049;28;20156;-67
2023/10/27 02:44:19;;;;;;;142.25;93.38;;;;;;;22.19;nan;98863.69;5017251;28;20389;-67
2023/10/27 02:46:48;;;;;;;136.18;89.75;;;;;;;22.37;nan;98864.03;5018011;28;20049;-67
2023/10/27 02:49:17;;;;;;;138.48;91.15;;;;;;;22.46;nan;98875.13;4984676;28;20046;-67
2023/10/27 02:51:47;;;;;;;127.35;89.65;;;;;;;22.64;nan;98882.75;4990465;28;20434;-67
2023/10/27 02:54:16;;;;;;;137.55;95.07;;;;;;;22.78;nan;98893.88;5009071;28;20045;-67
2023/10/27 02:56:45;;;;;;;134.75;93.78;;;;;;;22.91;nan;98893.38;4992722;28;20554;-67
2023/10/27 02:59:15;;;;;;;147.30;100.03;;;;;;;23.10;nan;98886.34;5004024;28;20054;-68
2023/10/27 03:01:47;;;;;;;176.90;107.43;;;;;;;23.29;nan;98886.63;5006554;28;20625;-68
2023/10/27 03:04:16;;;;;;;173.90;117.10;;;;;;;23.27;nan;98895.03;5010996;28;20745;-67
2023/10/27 03:06:46;;;;;;;168.38;114.25;;;;;;;23.53;nan;98881.53;5020413;28;20141;-68
2023/10/27 03:09:15;;;;;;;161.10;116.13;;;;;;;23.71;nan;98891.78;5025029;28;20053;-67
2023/10/27 03:11:45;;;;;;;174.32;116.78;;;;;;;23.88;nan;98891.47;5023983;28;20161;-69
2023/10/27 03:14:16;;;;;;;176.82;115.50;;;;;;;24.08;nan;98900.34;5000929;28;20541;-69
2023/10/27 03:16:49;;;;;;;165.52;112.93;;;;;;;23.95;nan;98900.91;5021399;28;20053;-68
2023/10/27 03:19:18;;;;;;;178.32;117.07;;;;;;;24.09;nan;98906.56;5020858;28;20057;-69
2023/10/27 03:21:48;;;;;;;182.88;118.65;;;;;;;24.21;nan;98912.50;5023019;28;20057;-69
2023/10/27 03:24:22;;;;;;;172.98;120.25;;;;;;;24.39;nan;98913.78;4991849;28;20081;-68
2023/10/27 03:26:51;;;;;;;167.02;120.53;;;;;;;24.53;nan;98925.66;5018588;28;20109;-68
2023/10/27 03:29:20;;;;;;;169.88;118.97;;;;;;;24.50;nan;98920.81;4984322;28;20050;-68
2023/10/27 03:31:50;;;;;;;177.43;115.30;;;;;;;24.47;nan;98926.78;4990037;28;20056;-68
2023/10/27 03:34:19;;;;;;;175.23;113.63;;;;;;;24.73;nan;98930.19;5017212;28;20111;-69
2023/10/27 03:36:49;;;;;;;166.32;108.28;;;;;;;24.79;nan;98935.28;5021090;28;20046;-69
2023/10/27 03:39:18;;;;;;;153.18;108.28;;;;;;;24.86;nan;98926.88;5009050;28;20095;-67
2023/10/27 03:41:48;;;;;;;154.70;105.18;;;;;;;24.99;nan;98940.63;5007333;28;20103;-68
2023/10/27 03:44:17;;;;;;;148.07;102.63;;;;;;;25.02;nan;98934.63;5020155;28;20540;-69
2023/10/27 03:46:49;;;;;;;158.38;101.35;;;;;;;25.03;nan;98947.09;4990177;28;20041;-69
2023/10/27 03:49:18;;;;;;;155.70;100.13;;;;;;;25.25;nan;98946.69;4985402;28;20104;-69
2023/10/27 03:51:48;;;;;;;152.52;99.53;;;;;;;25.48;nan;98939.75;5001115;28;20046;-69
2023/10/27 03:54:18;;;;;;;161.07;101.50;;;;;;;25.71;nan;98949.06;5000541;28;20137;-69
2023/10/27 03:56:48;;;;;;;151.13;102.90;;;;;;;25.76;nan;98951.72;4989922;28;20042;-68
2023/10/27 03:59:19;;;;;;;152.95;101.97;;;;;;;25.92;nan;98951.31;4985734;28;20061;-68
2023/10/27 04:01:49;;;;;;;150.88;103.03;;;;;;;25.92;nan;98956.75;4987620;28;20048;-68
2023/10/27 04:04:19;;;;;;;161.20;109.40;;;;;;;26.13;nan;98959.25;4989478;28;20057;-69
2023/10/27 04:06:49;;;;;;;145.15;100.32;;;;;;;26.57;nan;98957.16;5001294;28;20379;-68
2023/10/27 04:09:23;;;;;;;151.48;104.55;;;;;;;26.74;nan;98956.66;4994870;28;20074;-67
2023/10/27 04:11:52;;;;;;;151.82;98.00;;;;;;;26.74;nan;98962.91;5002045;28;20045;-67
2023/10/27 04:14:22;;;;;;;141.35;93.32;;;;;;;27.14;nan;98958.03;4993203;28;20058;-67
2023/10/27 04:16:55;;;;;;;137.50;92.15;;;;;;;27.17;nan;98958.25;4989535;28;20119;-67
2023/10/27 04:19:25;;;;;;;109.88;77.85;;;;;;;27.48;nan;98974.16;4995801;28;20046;-67
2023/10/27 04:21:54;;;;;;;98.70;66.70;;;;;;;27.73;nan;98964.78;4998435;28;20050;-67
2023/10/27 04:24:24;;;;;;;90.20;61.72;;;;;;;27.95;nan;98967.66;5011413;28;20403;-67
2023/10/27 04:26:53;;;;;;;90.03;58.40;;;;;;;27.72;nan;98969.41;4986618;28;20057;-68
2023/10/27 04:29:23;;;;;;;68.25;52.20;;;;;;;28.12;nan;98974.16;4988822;28;20102;-67
2023/10/27 04:31:52;;;;;;;74.95;51.67;;;;;;;28.41;nan;98970.38;4987005;28;20072;-66
2023/10/27 04:34:21;;;;;;;69.72;49.95;;;;;;;28.49;nan;98972.38;4985922;28;20180;-68
2023/10/27 04:36:54;;;;;;;77.15;55.10;;;;;;;27.96;nan;98978.25;4989241;28;20118;-67
2023/10/27 04:39:24;;;;;;;73.50;55.58;;;;;;;28.38;nan;98974.50;4982920;28;20101;-67
2023/10/27 04:41:53;;;;;;;78.13;58.20;;;;;;;28.85;nan;98980.69;4984437;28;20046;-67
2023/10/27 04:44:23;;;;;;;81.28;60.90;;;;;;;28.79;nan;98982.69;4982300;28;20066;-67
2023/10/27 04:46:53;;;;;;;84.18;62.47;;;;;;;29.28;nan;98979.16;4988533;28;20390;-67
2023/10/27 04:49:26;;;;;;;84.70;62.33;;;;;;;29.44;nan;98993.28;5004473;28;20057;-67
2023/10/27 04:51:56;;;;;;;79.10;63.05;;;;;;;29.51;nan;98990.94;5008098;28;20124;-67
2023/10/27 04:54:25;;;;;;;91.60;66.07;;;;;;;29.66;nan;98992.47;5001657;28;20053;-67
2023/10/27 04:56:55;;;;;;;95.18;71.10;;;;;;;29.82;nan;98991.00;5005988;28;20042;-67
2023/10/27 04:59:24;;;;;;;90.60;67.57;;;;;;;30.03;nan;98983.13;5004182;28;20141;-67
2023/10/27 05:01:53;;;;;;;82.82;56.20;;;;;;;30.06;nan;98988.75;5004827;28;20077;-68
2023/10/27 05:04:22;;;;;;;62.58;40.17;;;;;;;30.09;nan;98979.97;5006066;28;20050;-67
2023/10/27 05:06:52;;;;;;;54.50;29.90;;;;;;;30.03;nan;98983.94;5004468;28;20473;-67
2023/10/27 05:09:22;;;;;;;36.38;25.05;;;;;;;30.33;nan;98988.56;5004685;28;20074;-67
2023/10/27 05:11:52;;;;;;;32.92;24.60;;;;;;;30.59;nan;98990.63;5008277;28;20053;-67
2023/10/27 05:14:21;;;;;;;34.42;22.48;;;;;;;31.19;nan;98988.06;5014594;28;20053;-67
2023/10/27 05:16:50;;;;;;;38.42;24.75;;;;;;;30.36;nan;98991.81;5007817;28;20049;-67
2023/10/27 05:19:20;;;;;;;34.35;23.60;;;;;;;30.87;nan;98991.19;5004234;28;20109;-67
2023/10/27 05:21:49;;;;;;;27.90;19.88;;;;;;;30.66;nan;98985.53;4998732;28;20533;-68
2023/10/27 05:24:18;;;;;;;28.45;17.75;;;;;;;29.71;nan;98990.44;5007786;28;20045;-67
2023/10/27 05:26:48;;;;;;;24.13;17.10;;;;;;;29.80;nan;98995.97;5005093;28;20605;-69
2023/10/27 05:29:17;;;;;;;25.65;19.10;;;;;;;29.69;nan;98997.34;5002957;28;20049;-69
2023/10/27 05:31:47;;;;;;;26.58;18.85;;;;;;;30.08;nan;98988.44;4988392;28;20574;-69
2023/10/27 05:34:16;;;;;;;22.70;16.90;;;;;;;30.83;nan;98987.50;5006869;28;20053;-69
2023/10/27 05:36:46;;;;;;;35.28;18.83;;;;;;;29.87;nan;98986.22;5001326;28;20067;-69
2023/10/27 05:39:21;;;;;;;25.00;17.00;;;;;;;30.57;nan;98988.22;5008304;28;20057;-69
2023/10/27 05:41:50;;;;;;;28.88;18.30;;;;;;;30.52;nan;98985.63;5005676;28;20046;-69
2023/10/27 05:44:24;;;;;;;31.55;19.42;;;;;;;30.13;nan;98980.94;5007809;28;20045;-69
2023/10/27 05:46:54;;;;;;;38.88;21.70;;;;;;;29.46;nan;98969.22;5003005;28;20063;-68
2023/10/27 05:49:23;;;;;;;26.15;20.30;;;;;;;29.99;nan;98968.47;5004085;28;20147;-68
2023/10/27 05:51:53;;;;;;;34.28;21.25;;;;;;;29.60;nan;98967.25;5005704;28;20053;-69
2023/10/27 05:54:22;;;;;;;36.92;21.13;;;;;;;29.46;nan;98961.03;5006933;28;20077;-69
2023/10/27 05:56:52;;;;;;;38.53;21.17;;;;;;;29.31;nan;98961.38;5015154;28;20048;-66
2023/10/27 05:59:22;;;;;;;32.17;22.00;;;;;;;29.86;nan;98953.75;5018483;28;20187;-66
2023/10/27 06:01:53;;;;;;;34.47;21.75;;;;;;;30.24;nan;98948.66;5013585;28;20051;-66
2023/10/27 06:04:27;;;;;;;30.38;20.35;;;;;;;30.39;nan;98955.63;5016519;28;20049;-66
2023/10/27 06:06:56;;;;;;;33.83;22.60;;;;;;;30.18;nan;98947.22;4996893;28;20064;-67
2023/10/27 06:09:29;;;;;;;34.78;22.48;;;;;;;30.29;nan;98949.34;5011923;28;20085;-67
2023/10/27 06:11:58;;;;;;;52.67;23.52;;;;;;;30.57;nan;98941.75;5017078;28;20351;-69
2023/10/27 06:14:30;;;;;;;38.22;22.15;;;;;;;30.58;nan;98939.81;5020398;28;20053;-69
2023/10/27 06:17:01;;;;;;;32.53;21.73;;;;;;;30.56;nan;98933.84;5015128;28;20049;-69
2023/10/27 06:19:31;;;;;;;32.33;20.55;;;;;;;29.97;nan;98930.53;5015953;28;20711;-69
2023/10/27 06:22:01;;;;;;;35.25;22.45;;;;;;;29.90;nan;98924.72;5022195;28;20101;-68
2023/10/27 06:24:30;;;;;;;29.63;20.40;;;;;;;30.03;nan;98912.91;5018504;28;20479;-69
2023/10/27 06:27:03;;;;;;;32.20;21.10;;;;;;;30.08;nan;98904.56;5013283;28;20049;-68
2023/10/27 06:29:34;;;;;;;33.08;22.63;;;;;;;29.93;nan;98912.34;5018562;28;20046;-69
2023/10/27 06:32:04;;;;;;;31.83;23.48;;;;;;;30.08;nan;98904.56;5005000;28;20402;-69
2023/10/27 06:34:36;;;;;;;40.35;24.65;;;;;;;30.32;nan;98904.97;5010454;28;20041;-68
2023/10/27 06:37:06;;;;;;;30.88;19.67;;;;;;;30.40;nan;98897.94;5010878;28;20064;-68
2023/10/27 06:39:36;;;;;;;32.17;19.70;;;;;;;30.26;nan;98895.31;5003146;28;20057;-68
2023/10/27 06:42:06;;;;;;;32.97;19.73;;;;;;;30.16;nan;98895.59;5002243;28;20049;-68
2023/10/27 06:44:35;;;;;;;37.03;21.58;;;;;;;30.22;nan;98894.34;5001429;28;20068;-66
2023/10/27 06:47:05;;;;;;;29.65;20.15;;;;;;;30.16;nan;98890.13;5000695;28;20050;-67
2023/10/27 06:49:39;;;;;;;29.08;19.35;;;;;;;29.95;nan;98883.63;5002760;28;20457;-66
2023/10/27 06:52:08;;;;;;;26.02;18.63;;;;;;;29.98;nan;98880.25;5007121;28;20042;-67
2023/10/27 06:54:38;;;;;;;30.13;20.25;;;;;;;30.22;nan;98875.22;5010232;28;20448;-67
2023/10/27 06:57:11;;;;;;;36.63;19.75;;;;;;;30.19;nan;98877.75;5008932;28;20049;-67
2023/10/27 06:59:39;;;;;;;;;;;;;;;30.24;nan;98872.94;5005498;28;20052;-69
2023/10/27 07:02:09;;;;;;;27.65;19.13;;;;;;;30.15;nan;98868.56;4999842;28;19925;-68
2023/10/27 07:04:38;;;;;;;30.67;20.20;;;;;;;29.89;nan;98863.03;5019521;28;20041;-67
2023/10/27 07:07:07;;;;;;;24.63;19.88;;;;;;;29.89;nan;98857.56;5006917;28;20881;-68
2023/10/27 07:09:52;;;;;;;28.83;19.58;;;;;;;29.96;nan;98855.19;5007491;28;20045;-67
2023/10/27 07:12:24;;;;;;;27.40;20.05;;;;;;;29.93;nan;98866.72;5003284;28;20777;-68
2023/10/27 07:14:53;;;;;;;34.58;20.42;;;;;;;29.98;nan;98860.31;5017845;28;20046;-68
2023/10/27 07:17:23;;;;;;;26.83;19.67;;;;;;;30.05;nan;98853.28;5005222;28;20149;-67
2023/10/27 07:19:55;;;;;;;33.88;19.98;;;;;;;29.79;nan;98846.88;5003501;28;20076;-68
2023/10/27 07:22:24;;;;;;;33.10;20.70;;;;;;;29.84;nan;98844.81;5008032;28;20137;-68
2023/10/27 07:24:54;;;;;;;32.33;20.52;;;;;;;29.91;nan;98838.13;5018471;28;20160;-69
2023/10/27 07:27:26;;;;;;;47.20;21.63;;;;;;;29.62;nan;98827.69;5016790;28;20053;-68
2023/10/27 07:29:55;;;;;;;;;;;;;;;29.54;nan;98832.00;5005679;28;20132;-71
2023/10/27 07:32:24;;;;;;;27.83;20.80;;;;;;;29.43;nan;98820.53;5005307;28;20008;-69
2023/10/27 07:34:58;;;;;;;28.02;19.08;;;;;;;29.58;nan;98823.97;5017248;28;20140;-70
2023/10/27 07:37:27;;;;;;;35.40;21.08;;;;;;;29.68;nan;98818.25;5006212;28;20544;-71
2023/10/27 07:39:57;;;;;;;29.05;19.40;;;;;;;29.66;nan;98809.56;5002476;28;20041;-70
2023/10/27 07:42:27;;;;;;;24.70;19.23;;;;;;;29.67;nan;98794.78;4986617;28;20492;-69
2023/10/27 07:44:57;;;;;;;26.27;18.10;;;;;;;29.74;nan;98795.16;5008019;28;20045;-68
2023/10/27 07:47:28;;;;;;;26.23;17.00;;;;;;;29.77;nan;98792.59;5018559;28;20049;-69
2023/10/27 07:49:57;;;;;;;27.73;18.70;;;;;;;29.48;nan;98792.28;5011058;28;20150;-70
2023/10/27 07:52:27;;;;;;;24.80;18.40;;;;;;;29.29;nan;98778.91;5008239;28;20050;-68
2023/10/27 07:54:57;;;;;;;22.75;16.02;;;;;;;29.27;nan;98777.53;5013173;28;20061;-69
2023/10/27 07:57:27;;;;;;;25.73;16.27;;;;;;;29.32;nan;98772.78;5020630;28;20156;-69
2023/10/27 07:59:57;;;;;;;19.08;15.70;;;;;;;29.36;nan;98770.25;5004568;28;20041;-68
2023/10/27 08:02:26;;;;;;;31.10;16.83;;;;;;;29.35;nan;98771.34;5006253;28;20065;-69
2023/10/27 08:04:58;;;;;;;25.50;16.45;;;;;;;29.37;nan;98761.75;5005854;28;20188;-69
2023/10/27 08:07:29;;;;;;;27.47;16.90;;;;;;;29.33;nan;98768.97;5003950;28;20151;-68
2023/10/27 08:09:59;;;;;;;25.23;15.77;;;;;;;29.37;nan;98761.75;5010204;28;20746;-69
2023/10/27 08:12:28;;;;;;;24.10;16.38;;;;;;;29.25;nan;98758.78;5001697;28;20042;-69
2023/10/27 08:15:04;;;;;;;25.73;15.18;;;;;;;29.15;nan;98752.78;5008234;28;20049;-68
2023/10/27 08:17:35;;;;;;;20.92;14.80;;;;;;;29.16;nan;98754.38;5015402;28;20115;-69
2023/10/27 08:20:16;;;;;;;28.42;18.60;;;;;;;28.87;nan;98749.38;5009552;28;20049;-69
2023/10/27 08:22:46;;;;;;;28.65;17.48;;;;;;;28.88;nan;98745.53;5018386;28;20057;-69
2023/10/27 08:25:16;;;;;;;26.63;17.50;;;;;;;28.81;nan;98747.91;5006357;28;20534;-69
2023/10/27 08:27:47;;;;;;;31.15;18.92;;;;;;;28.97;nan;98738.22;5005574;28;20064;-68
2023/10/27 08:30:17;;;;;;;31.20;17.98;;;;;;;28.91;nan;98736.72;5006872;28;20053;-68
2023/10/27 08:32:47;;;;;;;33.78;18.15;;;;;;;28.82;nan;98731.22;5015042;28;20050;-69
2023/10/27 08:35:16;;;;;;;26.63;17.08;;;;;;;28.90;nan;98729.69;5004212;28;20053;-69
2023/10/27 08:37:47;;;;;;;22.50;16.70;;;;;;;28.94;nan;98733.41;5013424;28;20046;-69
2023/10/27 08:40:17;;;;;;;26.17;16.35;;;;;;;28.88;nan;98729.19;5015481;28;20049;-69
2023/10/27 08:42:49;;;;;;;21.65;16.83;;;;;;;28.89;nan;98728.88;5009277;28;20042;-69
2023/10/27 08:45:19;;;;;;;28.20;16.73;;;;;;;28.88;nan;98724.53;5006218;28;20120;-68
2023/10/27 08:47:49;;;;;;;24.23;17.95;;;;;;;28.90;nan;98729.69;5014810;28;20049;-67
2023/10/27 08:50:18;;;;;;;30.25;18.00;;;;;;;28.92;nan;98728.25;5006661;28;20061;-68
2023/10/27 08:52:51;;;;;;;29.15;18.35;;;;;;;28.94;nan;98725.22;5009173;28;20058;-69
2023/10/27 08:55:21;;;;;;;20.05;17.25;;;;;;;28.97;nan;98716.41;5008269;28;20057;-69
2023/10/27 08:57:55;;;;;;;35.20;19.05;;;;;;;28.82;nan;98716.78;5009744;28;20046;-69
2023/10/27 09:00:25;;;;;;;23.95;16.48;;;;;;;28.85;nan;98722.44;5012067;28;20050;-69
2023/10/27 09:02:54;;;;;;;25.55;17.92;;;;;;;28.87;nan;98722.13;5012306;28;20057;-69
2023/10/27 09:05:24;;;;;;;23.30;17.17;;;;;;;28.91;nan;98720.38;5026630;28;20060;-68
2023/10/27 09:07:54;;;;;;;23.58;16.60;;;;;;;28.91;nan;98712.19;5019319;28;20132;-69
2023/10/27 09:10:23;;;;;;;26.75;16.75;;;;;;;28.85;nan;98716.19;5026829;28;20053;-70
2023/10/27 09:12:57;;;;;;;21.83;17.08;;;;;;;28.77;nan;98717.72;5017914;28;20171;-69
2023/10/27 09:15:47;;;;;;;25.25;15.95;;;;;;;28.76;nan;98716.13;5016643;28;20746;-70
2023/10/27 09:18:17;;;;;;;24.58;15.27;;;;;;;28.72;nan;98720.59;5014753;28;20049;-68
2023/10/27 09:20:51;;;;;;;28.00;15.10;;;;;;;28.76;nan;98713.41;5026160;28;20103;-70
2023/10/27 09:23:22;;;;;;;24.88;14.98;;;;;;;28.80;nan;98713.59;5012251;28;20690;-69
2023/10/27 09:25:57;;;;;;;26.63;16.65;;;;;;;28.75;nan;98714.50;5006049;28;20046;-69
2023/10/27 09:28:29;;;;;;;21.02;15.00;;;;;;;28.70;nan;98706.47;5009831;28;20050;-69
2023/10/27 09:31:02;;;;;;;23.65;14.95;;;;;;;28.73;nan;98699.56;5022918;28;20053;-69
2023/10/27 09:33:32;;;;;;;22.52;15.05;;;;;;;28.74;nan;98706.63;5011857;28;20049;-69
2023/10/27 09:36:03;;;;;;;21.45;14.65;;;;;;;28.74;nan;98699.28;5005547;28;20057;-69
2023/10/27 09:38:33;;;;;;;27.77;15.65;;;;;;;28.73;nan;98699.56;5008136;28;20136;-69
2023/10/27 09:41:07;;;;;;;39.10;16.65;;;;;;;28.75;nan;98692.72;4993672;28;20626;-73
2023/10/27 09:43:40;;;;;;;23.90;15.95;;;;;;;28.64;nan;98688.56;5014630;28;20128;-70
2023/10/27 09:46:14;;;;;;;26.05;16.42;;;;;;;28.68;nan;98689.56;5012925;28;20066;-69
2023/10/27 09:48:48;;;;;;;26.98;17.05;;;;;;;28.66;nan;98688.28;4663785;28;9999998;-69
2023/10/27 09:51:29;;;;;;;30.67;16.70;;;;;;;28.56;nan;98690.13;5018565;28;20045;-68
2023/10/27 09:54:01;;;;;;;21.70;16.05;;;;;;;28.57;nan;98691.75;5018106;28;20054;-69
2023/10/27 09:56:33;;;;;;;31.50;17.30;;;;;;;28.54;nan;98684.22;5009463;28;20054;-68
2023/10/27 09:59:04;;;;;;;28.15;17.27;;;;;;;28.59;nan;98677.81;5005122;28;20053;-69
2023/10/27 10:01:35;;;;;;;26.05;17.80;;;;;;;28.58;nan;98687.91;5000301;28;20044;-68
2023/10/27 10:04:06;;;;;;;22.48;17.50;;;;;;;28.57;nan;98669.16;4985436;28;20147;-69
2023/10/27 10:06:37;;;;;;;24.73;16.10;;;;;;;28.53;nan;98674.41;4985960;28;20460;-67
2023/10/27 10:09:19;;;;;;;26.88;17.27;;;;;;;28.45;nan;98671.63;5017743;28;20085;-70
2023/10/27 10:11:49;;;;;;;30.55;16.65;;;;;;;28.45;nan;98669.72;5007830;28;20044;-70
2023/10/27 10:14:38;;;;;;;23.95;16.70;;;;;;;28.45;nan;98663.47;5004925;28;20037;-68
2023/10/27 10:17:09;;;;;;;21.42;16.27;;;;;;;28.34;nan;98671.06;5004088;28;20057;-70
2023/10/27 10:19:55;;;;;;;25.33;16.67;;;;;;;28.34;nan;98659.34;5006650;28;20147;-71
2023/10/27 10:22:41;;;;;;;27.38;16.13;;;;;;;28.28;nan;98661.38;5002841;28;20046;-69
2023/10/27 10:25:23;;;;;;;25.77;16.55;;;;;;;28.32;nan;98661.59;4996103;28;20057;-68
2023/10/27 10:28:10;;;;;;;26.33;17.17;;;;;;;28.21;nan;98652.84;5018787;28;20085;-71
2023/10/27 10:30:46;;;;;;;30.83;16.45;;;;;;;28.21;nan;98650.13;5013008;28;20049;-72
2023/10/27 10:33:22;;;;;;;30.23;17.30;;;;;;;28.14;nan;98652.50;5009727;28;20104;-74
2023/10/27 10:35:52;;;;;;;28.23;18.10;;;;;;;28.04;nan;98663.59;5003617;28;20615;-71
2023/10/27 10:38:22;;;;;;;26.48;17.50;;;;;;;28.03;nan;98659.25;5011496;28;20068;-71
2023/10/27 10:40:54;;;;;;;26.00;16.80;;;;;;;28.02;nan;98657.63;5020898;28;20426;-71
2023/10/27 10:43:34;;;;;;;27.58;17.08;;;;;;;27.98;nan;98662.06;5007784;28;20052;-72
2023/10/27 10:46:06;;;;;;;25.52;17.15;;;;;;;27.94;nan;98663.81;5005224;28;20842;-72
2023/10/27 10:48:46;;;;;;;24.92;17.88;;;;;;;27.94;nan;98677.41;5007576;28;20084;-72
2023/10/27 10:51:26;;;;;;;25.25;18.80;;;;;;;27.93;nan;98671.16;5006584;28;20148;-71
2023/10/27 10:53:56;;;;;;;28.02;17.95;;;;;;;27.83;nan;98670.59;5008099;28;20545;-72
2023/10/27 10:56:25;;;;;;;26.02;17.83;;;;;;;27.81;nan;98667.38;5004447;28;20486;-71
2023/10/27 10:58:55;;;;;;;31.10;18.95;;;;;;;27.69;nan;98667.91;5010252;28;20050;-72
2023/10/27 11:01:24;;;;;;;31.80;17.88;;;;;;;27.66;nan;98673.97;5007793;28;20056;-72
2023/10/27 11:03:55;;;;;;;27.48;17.55;;;;;;;27.66;nan;98672.00;5012915;28;20060;-71
2023/10/27 11:06:27;;;;;;;23.85;18.15;;;;;;;27.56;nan;98669.53;5005943;28;20049;-71
2023/10/27 11:08:57;;;;;;;31.73;18.33;;;;;;;27.42;nan;98665.97;5012679;28;20038;-71
2023/10/27 11:11:28;;;;;;;29.88;18.20;;;;;;;27.38;nan;98664.97;5011761;28;20049;-71
2023/10/27 11:14:14;;;;;;;24.48;17.67;;;;;;;27.25;nan;98661.16;5001215;28;20132;-71
2023/10/27 11:16:43;;;;;;;29.73;19.17;;;;;;;27.20;nan;98668.59;5010980;28;20168;-72
2023/10/27 11:19:16;;;;;;;27.08;18.15;;;;;;;27.06;nan;98659.63;5004919;28;20045;-73
2023/10/27 11:21:54;;;;;;;29.20;18.35;;;;;;;27.01;nan;98665.16;5007287;28;20134;-72
2023/10/27 11:24:24;;;;;;;35.17;18.13;;;;;;;26.98;nan;98658.41;5007751;28;20081;-73
2023/10/27 11:26:54;;;;;;;28.42;18.38;;;;;;;26.93;nan;98663.13;5003957;28;20221;-71
2023/10/27 11:29:24;;;;;;;27.63;17.38;;;;;;;26.88;nan;98671.38;5006889;28;20115;-72
2023/10/27 11:31:54;;;;;;;27.30;16.80;;;;;;;26.80;nan;98662.78;5002614;28;20440;-72
2023/10/27 11:34:26;;;;;;;25.52;17.92;;;;;;;26.76;nan;98667.19;5009260;28;20053;-72
2023/10/27 11:37:01;;;;;;;26.45;18.48;;;;;;;26.71;nan;98663.75;5000382;28;20074;-72
2023/10/27 11:39:35;;;;;;;31.55;19.90;;;;;;;26.58;nan;98662.63;5001512;28;20050;-64
2023/10/27 11:42:05;;;;;;;32.97;19.42;;;;;;;26.48;nan;98657.34;4654274;28;10000225;-69
2023/10/27 11:44:42;;;;;;;39.83;23.83;;;;;;;26.34;nan;98660.00;5004063;28;20129;-68
2023/10/27 11:47:11;;;;;;;54.80;26.45;;;;;;;26.45;nan;98657.13;4997704;28;20244;-67
2023/10/27 11:49:41;;;;;;;50.05;32.58;;;;;;;26.39;nan;98648.25;4997179;28;20497;-68